createdAt,value
2019-05-03T00:02:17.873Z,0.55
2019-05-03T00:04:47.987Z,0.70
2019-05-03T00:07:16.468Z,0.65
2019-05-03T00:09:44.935Z,0.95
2019-05-03T00:12:13.292Z,0.75
2019-05-03T00:14:43.352Z,0.50
2019-05-03T00:17:11.808Z,0.65
2019-05-03T00:19:42.071Z,1.05
2019-05-03T00:22:12.215Z,2.25
2019-05-03T00:24:42.433Z,0.57
2019-05-03T00:27:12.321Z,0.40
2019-05-03T00:29:41.791Z,0.50
2019-05-03T00:32:12.296Z,0.55
2019-05-03T00:34:42.280Z,1.60
2019-05-03T00:37:18.032Z,1.80
2019-05-03T00:40:07.104Z,0.53
2019-05-03T00:42:35.505Z,0.45
2019-05-03T00:45:06.359Z,0.42
2019-05-03T00:47:34.751Z,0.90
2019-05-03T00:50:04.204Z,0.30
2019-05-03T00:52:32.607Z,0.40
2019-05-03T00:55:02.198Z,0.30
2019-05-03T00:57:32.305Z,0.28
2019-05-03T01:00:02.174Z,0.30
2019-05-03T01:02:31.850Z,0.20
2019-05-03T01:05:02.633Z,0.30
2019-05-03T01:07:31.899Z,0.40
2019-05-03T01:10:02.656Z,0.98
2019-05-03T01:12:32.440Z,0.20
2019-05-03T01:15:02.804Z,0.45
2019-05-03T01:17:32.033Z,0.23
2019-05-03T01:20:02.559Z,0.30
2019-05-03T01:22:32.222Z,0.23
2019-05-03T01:25:02.617Z,0.20
2019-05-03T01:27:32.389Z,0.42
2019-05-03T01:30:02.619Z,0.55
2019-05-03T01:32:32.687Z,0.30
2019-05-03T01:35:02.930Z,2.52
2019-05-03T01:37:31.938Z,0.30
2019-05-03T01:40:02.401Z,0.68
2019-05-03T01:42:32.078Z,0.30
2019-05-03T01:45:01.898Z,0.10
2019-05-03T01:47:34.871Z,0.40
2019-05-03T01:50:13.820Z,1.87
2019-05-03T01:52:43.857Z,0.13
2019-05-03T01:55:15.725Z,3.17
2019-05-03T01:57:42.142Z,0.20
2019-05-03T02:00:13.923Z,0.62
2019-05-03T02:02:43.972Z,0.25
2019-05-03T02:05:31.915Z,0.55
2019-05-03T02:08:02.104Z,2.50
2019-05-03T02:10:32.187Z,0.20
2019-05-03T02:13:01.711Z,0.30
2019-05-03T02:15:29.964Z,0.30
2019-05-03T02:17:58.380Z,0.33
2019-05-03T02:20:26.780Z,0.10
2019-05-03T02:22:54.860Z,0.40
2019-05-03T02:25:23.248Z,0.47
2019-05-03T02:27:52.699Z,0.30
2019-05-03T02:30:24.759Z,0.20
2019-05-03T02:32:53.326Z,0.53
2019-05-03T02:35:22.744Z,0.50
2019-05-03T02:37:53.291Z,0.20
2019-05-03T02:40:24.559Z,0.10
2019-05-03T02:43:06.218Z,0.20
2019-05-03T02:45:36.693Z,0.30
2019-05-03T02:48:09.854Z,0.62
2019-05-03T02:50:38.245Z,1.20
2019-05-03T02:53:06.328Z,0.20
2019-05-03T02:55:36.388Z,1.45
2019-05-03T02:58:05.707Z,0.30
2019-05-03T03:00:58.337Z,0.23
2019-05-03T03:03:30.809Z,0.20
2019-05-03T03:06:01.553Z,0.17
2019-05-03T03:08:33.374Z,0.20
2019-05-03T03:11:06.488Z,0.28
2019-05-03T03:13:37.635Z,0.30
2019-05-03T03:16:08.686Z,1.45
2019-05-03T03:18:39.895Z,0.60
2019-05-03T03:21:11.774Z,0.30
2019-05-03T03:24:01.102Z,0.20
2019-05-03T03:26:37.719Z,0.30
2019-05-03T03:29:05.635Z,0.40
2019-05-03T03:31:49.611Z,0.40
2019-05-03T03:34:21.011Z,0.28
2019-05-03T03:37:00.991Z,0.20
2019-05-03T03:39:25.688Z,0.40
2019-05-03T03:41:55.905Z,0.50
2019-05-03T03:44:25.726Z,0.72
2019-05-03T03:46:56.063Z,0.35
2019-05-03T03:49:28.094Z,0.30
2019-05-03T03:51:58.324Z,0.30
2019-05-03T03:54:28.271Z,0.25
2019-05-03T03:57:03.829Z,0.37
2019-05-03T03:59:27.238Z,0.82
2019-05-03T04:01:55.850Z,0.85
2019-05-03T04:04:25.959Z,0.95
2019-05-03T04:06:58.391Z,0.30
2019-05-03T04:09:25.748Z,0.30
2019-05-03T04:11:56.832Z,0.50
2019-05-03T04:14:29.768Z,0.45
2019-05-03T04:17:00.202Z,0.30
2019-05-03T04:22:11.352Z,0.30
2019-05-03T04:24:39.755Z,0.40
2019-05-03T04:27:18.575Z,0.75
2019-05-03T04:29:39.413Z,0.33
2019-05-03T04:32:10.115Z,2.17
2019-05-03T04:34:38.197Z,0.37
2019-05-03T04:37:06.673Z,0.98
2019-05-03T04:39:35.866Z,1.07
2019-05-03T04:42:06.745Z,0.55
2019-05-03T04:44:35.801Z,1.07
2019-05-03T04:47:06.930Z,0.68
2019-05-03T04:49:36.193Z,0.80
2019-05-03T04:52:05.809Z,0.65
2019-05-03T04:54:39.116Z,0.80
2019-05-03T04:57:07.593Z,1.25
2019-05-03T04:59:35.962Z,0.80
2019-05-03T05:02:06.118Z,1.17
2019-05-03T05:04:35.770Z,1.32
2019-05-03T05:07:06.232Z,2.50
2019-05-03T05:09:35.093Z,1.52
2019-05-03T05:12:05.717Z,1.57
2019-05-03T05:14:35.267Z,2.02
2019-05-03T05:17:06.122Z,1.65
2019-05-03T05:19:42.156Z,1.77
2019-05-03T05:22:15.622Z,2.60
2019-05-03T05:24:44.984Z,3.30
2019-05-03T05:27:27.118Z,1.45
2019-05-03T05:30:14.950Z,1.52
2019-05-03T05:32:45.279Z,2.58
2019-05-03T05:35:14.339Z,1.40
2019-05-03T05:37:44.393Z,2.25
2019-05-03T05:40:15.521Z,2.25
2019-05-03T05:42:45.406Z,2.15
2019-05-03T05:45:15.293Z,3.30
2019-05-03T05:47:51.509Z,3.90
2019-05-03T05:50:27.074Z,2.72
2019-05-03T05:52:55.302Z,3.60
2019-05-03T05:55:41.824Z,3.50
2019-05-03T05:58:11.874Z,2.77
2019-05-03T06:00:41.920Z,5.12
2019-05-03T06:03:09.992Z,4.25
2019-05-03T06:05:38.477Z,5.05
2019-05-03T06:08:11.222Z,4.55
2019-05-03T06:10:45.110Z,7.10
2019-05-03T06:13:26.324Z,4.67
2019-05-03T06:15:56.048Z,6.67
2019-05-03T06:18:31.685Z,5.25
2019-05-03T06:21:04.722Z,5.10
2019-05-03T06:23:37.599Z,7.17
2019-05-03T06:26:07.658Z,5.53
2019-05-03T06:28:36.057Z,7.40
2019-05-03T06:31:11.824Z,6.72
2019-05-03T06:33:40.224Z,7.97
2019-05-03T06:36:08.919Z,10.90
2019-05-03T06:38:37.317Z,8.00
2019-05-03T06:41:05.396Z,6.40
2019-05-03T06:43:34.819Z,9.28
2019-05-03T06:46:05.168Z,7.92
2019-05-03T06:48:34.782Z,9.30
2019-05-03T06:51:08.804Z,8.48
2019-05-03T06:53:34.516Z,8.38
2019-05-03T06:56:04.562Z,9.05
2019-05-03T06:58:36.192Z,9.63
2019-05-03T07:01:07.669Z,9.38
2019-05-03T07:03:40.507Z,7.80
2019-05-03T07:06:16.492Z,9.30
2019-05-03T07:08:52.317Z,10.63
2019-05-03T07:11:20.716Z,10.55
2019-05-03T07:13:49.129Z,13.98
2019-05-03T07:16:17.537Z,10.70
2019-05-03T07:18:45.944Z,11.85
2019-05-03T07:21:15.282Z,11.53
2019-05-03T07:23:45.090Z,11.35
2019-05-03T07:26:15.096Z,10.48
2019-05-03T07:28:47.826Z,12.33
2019-05-03T07:31:15.103Z,12.23
2019-05-03T07:33:44.631Z,13.43
2019-05-03T07:36:15.290Z,11.55
2019-05-03T07:38:45.383Z,13.13
2019-05-03T07:41:14.932Z,12.88
2019-05-03T07:43:45.067Z,11.40
2019-05-03T07:46:14.701Z,14.05
2019-05-03T07:48:45.546Z,11.48
2019-05-03T07:51:14.439Z,10.25
2019-05-03T07:53:45.047Z,11.43
2019-05-03T07:56:15.422Z,14.65
2019-05-03T07:58:59.075Z,14.58
2019-05-03T08:01:29.677Z,13.32
2019-05-03T08:03:57.821Z,15.00
2019-05-03T08:06:26.220Z,12.00
2019-05-03T08:08:54.596Z,14.35
2019-05-03T08:11:24.888Z,14.58
2019-05-03T08:13:55.011Z,10.90
2019-05-03T08:16:25.127Z,14.25
2019-05-03T08:18:55.904Z,13.43
2019-05-03T08:21:25.224Z,12.40
2019-05-03T08:23:55.705Z,14.98
2019-05-03T08:26:25.722Z,11.63
2019-05-03T08:28:54.642Z,13.98
2019-05-03T08:31:27.702Z,14.53
2019-05-03T08:34:00.704Z,13.32
2019-05-03T08:36:30.494Z,14.93
2019-05-03T08:38:58.909Z,12.03
2019-05-03T08:41:28.951Z,12.98
2019-05-03T08:43:57.365Z,7.28
2019-05-03T08:46:25.765Z,8.45
2019-05-03T08:48:54.827Z,7.97
2019-05-03T08:51:44.388Z,6.80
2019-05-03T08:54:14.976Z,6.50
2019-05-03T08:56:45.093Z,9.38
2019-05-03T08:59:26.562Z,7.85
2019-05-03T09:01:45.355Z,6.12
2019-05-03T09:04:15.374Z,4.28
2019-05-03T09:06:44.635Z,5.92
2019-05-03T09:09:20.863Z,5.22
2019-05-03T09:11:49.261Z,4.45
2019-05-03T09:14:17.737Z,6.58
2019-05-03T09:16:45.804Z,7.20
2019-05-03T09:19:14.784Z,6.05
2019-05-03T09:21:45.269Z,4.50
2019-05-03T09:24:15.166Z,7.55
2019-05-03T09:26:44.962Z,5.97
2019-05-03T09:29:14.811Z,4.55
2019-05-03T09:31:44.693Z,5.10
2019-05-03T09:34:14.746Z,4.17
2019-05-03T09:36:44.849Z,4.35
2019-05-03T09:39:14.913Z,4.33
2019-05-03T09:41:45.058Z,3.20
2019-05-03T09:44:15.078Z,2.77
2019-05-03T09:46:44.628Z,3.22
2019-05-03T09:49:16.235Z,2.25
2019-05-03T09:51:44.454Z,3.83
2019-05-03T09:54:17.625Z,2.72
2019-05-03T09:56:59.047Z,1.87
2019-05-03T09:59:29.468Z,2.33
2019-05-03T10:01:58.621Z,2.58
2019-05-03T10:04:27.113Z,1.50
2019-05-03T10:06:55.537Z,1.35
2019-05-03T10:09:26.176Z,1.57
2019-05-03T10:11:55.130Z,1.82
2019-05-03T10:14:24.344Z,1.75
2019-05-03T10:16:57.363Z,1.37
2019-05-03T10:19:36.663Z,1.75
2019-05-03T10:21:55.966Z,0.82
2019-05-03T10:24:24.380Z,1.55
2019-05-03T10:26:55.084Z,1.25
2019-05-03T10:29:22.585Z,1.75
2019-05-03T10:31:54.477Z,0.65
2019-05-03T10:34:22.428Z,1.15
2019-05-03T10:36:50.828Z,0.50
2019-05-03T10:39:18.903Z,0.47
2019-05-03T10:41:47.325Z,0.40
2019-05-03T10:44:15.397Z,0.70
2019-05-03T10:46:45.274Z,1.57
2019-05-03T10:49:15.319Z,1.32
2019-05-03T10:51:45.372Z,0.68
2019-05-03T10:54:14.615Z,0.60
2019-05-03T10:56:50.604Z,0.93
2019-05-03T10:59:20.067Z,1.32
2019-05-03T11:01:54.510Z,0.65
2019-05-03T11:04:23.734Z,1.10
2019-05-03T11:06:52.149Z,0.75
2019-05-03T11:09:20.552Z,1.47
2019-05-03T11:11:49.015Z,0.93
2019-05-03T11:14:17.142Z,0.80
2019-05-03T11:16:46.169Z,1.40
2019-05-03T11:19:14.641Z,1.05
2019-05-03T11:21:45.339Z,0.42
2019-05-03T11:24:14.703Z,0.60
2019-05-03T11:26:45.410Z,0.70
2019-05-03T11:29:15.825Z,0.65
2019-05-03T11:31:45.886Z,0.53
2019-05-03T11:34:22.411Z,0.72
2019-05-03T11:37:06.040Z,0.20
2019-05-03T11:39:34.496Z,0.28
2019-05-03T11:42:04.670Z,1.00
2019-05-03T11:44:39.056Z,1.25
2019-05-03T11:47:08.863Z,0.50
2019-05-03T11:49:37.420Z,0.30
2019-05-03T11:52:06.470Z,0.40
2019-05-03T11:54:35.974Z,0.30
2019-05-03T11:57:06.283Z,0.93
2019-05-03T11:59:34.692Z,0.37
2019-05-03T12:02:10.184Z,0.60
2019-05-03T12:04:38.591Z,0.50
2019-05-03T12:07:06.996Z,0.85
2019-05-03T12:09:35.403Z,1.05
2019-05-03T12:12:04.878Z,0.88
2019-05-03T12:14:34.618Z,0.75
2019-05-03T12:17:18.068Z,1.40
2019-05-03T12:19:39.248Z,0.57
2019-05-03T12:22:08.486Z,0.80
2019-05-03T12:24:37.898Z,0.60
2019-05-03T12:27:06.868Z,0.50
2019-05-03T12:29:35.354Z,0.50
2019-05-03T12:32:05.262Z,0.60
2019-05-03T12:34:35.225Z,0.60
2019-05-03T12:37:05.126Z,0.88
2019-05-03T12:39:35.767Z,1.67
2019-05-03T12:42:05.888Z,1.50
2019-05-03T12:44:35.424Z,1.22
2019-05-03T12:47:06.059Z,1.87
2019-05-03T12:49:35.865Z,1.57
2019-05-03T12:52:05.267Z,2.58
2019-05-03T12:54:35.610Z,2.10
2019-05-03T12:57:05.029Z,1.95
2019-05-03T12:59:50.405Z,2.08
2019-05-03T13:02:26.612Z,1.62
2019-05-03T13:04:55.445Z,3.67
2019-05-03T13:07:25.640Z,3.30
2019-05-03T13:09:54.537Z,2.98
2019-05-03T13:12:25.367Z,4.37
2019-05-03T13:14:53.960Z,4.87
2019-05-03T13:17:40.136Z,4.83
2019-05-03T13:20:15.451Z,3.10
2019-05-03T13:22:45.774Z,3.20
2019-05-03T13:25:15.482Z,3.52
2019-05-03T13:27:45.974Z,1.10
2019-05-03T13:30:15.931Z,1.95
2019-05-03T13:32:45.709Z,0.42
2019-05-03T13:35:15.034Z,0.30
2019-05-03T13:37:45.330Z,0.23
2019-05-03T13:40:14.696Z,0.80
2019-05-03T13:42:54.227Z,0.40
2019-05-03T13:45:13.404Z,0.20
2019-05-03T13:47:41.800Z,0.10
2019-05-03T13:50:10.656Z,0.47
2019-05-03T13:52:39.048Z,0.20
2019-05-03T13:55:08.000Z,0.47
2019-05-03T13:57:36.076Z,0.40
2019-05-03T14:00:09.444Z,0.50
2019-05-03T14:02:37.911Z,1.95
2019-05-03T14:05:07.979Z,0.50
2019-05-03T14:07:36.360Z,2.22
2019-05-03T14:10:07.768Z,0.62
2019-05-03T14:12:55.587Z,1.17
2019-05-03T14:15:25.524Z,1.02
2019-05-03T14:17:54.739Z,2.02
2019-05-03T14:20:26.187Z,2.42
2019-05-03T14:22:54.950Z,1.10
2019-05-03T14:25:24.708Z,1.20
2019-05-03T14:27:55.007Z,1.00
2019-05-03T14:30:25.286Z,1.40
2019-05-03T14:32:55.587Z,1.35
2019-05-03T14:35:25.074Z,2.00
2019-05-03T14:37:55.046Z,1.85
2019-05-03T14:40:25.067Z,1.80
2019-05-03T14:42:55.459Z,2.17
2019-05-03T14:45:25.488Z,3.15
2019-05-03T14:47:54.749Z,3.40
2019-05-03T14:50:25.375Z,2.37
2019-05-03T14:52:54.589Z,4.03
2019-05-03T14:55:34.617Z,4.83
2019-05-03T14:58:04.955Z,5.45
2019-05-03T15:00:49.943Z,5.47
2019-05-03T15:03:24.202Z,3.35
2019-05-03T15:05:52.476Z,4.47
2019-05-03T15:08:20.883Z,3.33
2019-05-03T15:10:49.301Z,3.75
2019-05-03T15:13:17.689Z,4.08
2019-05-03T15:16:05.359Z,3.35
2019-05-03T15:18:34.842Z,2.50
2019-05-03T15:21:05.319Z,3.42
2019-05-03T15:23:34.722Z,2.22
2019-05-03T15:26:05.118Z,3.25
2019-05-03T15:28:35.403Z,5.15
2019-05-03T15:31:04.591Z,5.58
2019-05-03T15:33:35.196Z,4.95
2019-05-03T15:36:04.751Z,5.72
2019-05-03T15:38:34.654Z,6.05
2019-05-03T15:41:05.184Z,4.42
2019-05-03T15:43:51.030Z,5.10
2019-05-03T15:46:25.193Z,4.90
2019-05-03T15:48:55.205Z,4.87
2019-05-03T15:51:24.523Z,2.60
2019-05-03T15:53:54.983Z,2.33
2019-05-03T15:56:25.094Z,5.08
2019-05-03T15:58:55.210Z,7.42
2019-05-03T16:01:24.828Z,5.30
2019-05-03T16:03:53.148Z,3.00
2019-05-03T16:06:21.561Z,3.72
2019-05-03T16:08:49.965Z,3.83
2019-05-03T16:11:18.377Z,3.02
2019-05-03T16:13:46.765Z,3.22
2019-05-03T16:16:15.550Z,3.50
2019-05-03T16:18:44.863Z,4.25
2019-05-03T16:21:14.592Z,5.87
2019-05-03T16:23:46.305Z,3.60
2019-05-03T16:26:14.348Z,5.20
2019-05-03T16:28:49.711Z,5.53
2019-05-03T16:31:19.761Z,3.72
2019-05-03T16:33:48.178Z,4.20
2019-05-03T16:36:16.573Z,5.55
2019-05-03T16:38:45.067Z,3.58
2019-05-03T16:41:17.477Z,4.65
2019-05-03T16:43:45.579Z,4.60
2019-05-03T16:46:14.518Z,5.47
2019-05-03T16:48:44.777Z,3.85
2019-05-03T16:51:15.090Z,3.47
2019-05-03T16:53:44.511Z,3.70
2019-05-03T16:56:16.510Z,4.53
2019-05-03T16:58:44.652Z,6.42
2019-05-03T17:01:15.992Z,3.52
2019-05-03T17:03:47.931Z,5.72
2019-05-03T17:06:29.885Z,5.47
2019-05-03T17:09:06.063Z,5.47
2019-05-03T17:11:34.781Z,4.15
2019-05-03T17:14:05.006Z,3.92
2019-05-03T17:16:34.413Z,4.05
2019-05-03T17:19:02.937Z,4.92
2019-05-03T17:21:31.506Z,4.78
2019-05-03T17:23:59.923Z,4.87
2019-05-03T17:26:27.993Z,4.75
2019-05-03T17:28:56.485Z,4.45
2019-05-03T17:31:24.889Z,6.60
2019-05-03T17:33:56.517Z,5.72
2019-05-03T17:36:25.086Z,6.67
2019-05-03T17:38:55.196Z,6.45
2019-05-03T17:41:31.512Z,3.87
2019-05-03T17:44:04.983Z,5.15
2019-05-03T17:46:34.738Z,4.83
2019-05-03T17:49:05.157Z,4.95
2019-05-03T17:51:41.432Z,3.33
2019-05-03T17:54:16.790Z,4.97
2019-05-03T17:56:55.712Z,4.42
2019-05-03T17:59:25.771Z,6.15
2019-05-03T18:02:12.307Z,4.65
2019-05-03T18:04:51.432Z,4.65
2019-05-03T18:07:21.478Z,5.37
2019-05-03T18:09:51.529Z,5.70
2019-05-03T18:12:19.934Z,6.35
2019-05-03T18:14:48.340Z,6.12
2019-05-03T18:17:16.741Z,5.55
2019-05-03T18:19:45.130Z,5.12
2019-05-03T18:22:15.351Z,7.03
2019-05-03T18:24:45.544Z,5.90
2019-05-03T18:27:15.044Z,5.05
2019-05-03T18:29:44.921Z,3.60
2019-05-03T18:32:14.693Z,4.15
2019-05-03T18:34:45.193Z,6.15
2019-05-03T18:37:15.102Z,7.00
2019-05-03T18:39:45.243Z,5.83
2019-05-03T18:42:15.304Z,7.03
2019-05-03T18:44:48.228Z,5.55
2019-05-03T18:47:18.272Z,5.70
2019-05-03T18:49:46.700Z,4.62
2019-05-03T18:52:14.990Z,4.58
2019-05-03T18:54:44.479Z,5.50
2019-05-03T18:57:13.088Z,5.87
2019-05-03T18:59:41.496Z,6.42
2019-05-03T19:02:10.038Z,4.78
2019-05-03T19:04:40.080Z,5.33
2019-05-03T19:07:10.200Z,5.00
2019-05-03T19:09:49.409Z,6.40
2019-05-03T19:12:28.262Z,5.78
2019-05-03T19:14:56.740Z,6.80
2019-05-03T19:17:35.992Z,5.58
2019-05-03T19:20:06.813Z,6.35
2019-05-03T19:22:35.480Z,6.87
2019-05-03T19:25:04.836Z,7.33
2019-05-03T19:27:34.650Z,5.85
2019-05-03T19:30:04.682Z,5.75
2019-05-03T19:32:35.650Z,4.97
2019-05-03T19:35:05.113Z,7.00
2019-05-03T19:37:33.413Z,6.45
2019-05-03T19:40:01.906Z,5.12
2019-05-03T19:42:29.967Z,5.28
2019-05-03T19:44:58.388Z,6.40
2019-05-03T19:47:26.786Z,5.15
2019-05-03T19:49:55.243Z,5.97
2019-05-03T19:52:31.179Z,6.58
2019-05-03T19:54:59.607Z,6.85
2019-05-03T19:57:32.359Z,6.72
2019-05-03T20:00:00.760Z,5.95
2019-05-03T20:02:45.751Z,9.65
2019-05-03T20:05:27.324Z,7.70
2019-05-03T20:07:59.791Z,6.92
2019-05-03T20:10:29.160Z,6.33
2019-05-03T20:12:57.584Z,5.12
2019-05-03T20:15:26.002Z,7.33
2019-05-03T20:17:59.860Z,6.22
2019-05-03T20:20:24.520Z,7.25
2019-05-03T20:22:54.819Z,7.58
2019-05-03T20:25:24.410Z,6.92
2019-05-03T20:27:53.080Z,6.50
2019-05-03T20:30:21.489Z,6.05
2019-05-03T20:32:49.570Z,6.50
2019-05-03T20:35:19.325Z,7.60
2019-05-03T20:37:47.634Z,6.55
2019-05-03T20:40:16.174Z,5.60
2019-05-03T20:42:51.674Z,6.87
2019-05-03T20:45:24.925Z,7.95
2019-05-03T20:47:55.056Z,8.25
2019-05-03T20:50:24.787Z,6.03
2019-05-03T20:52:54.936Z,6.28
2019-05-03T20:55:23.191Z,4.85
2019-05-03T20:57:51.603Z,5.42
2019-05-03T21:00:21.687Z,6.62
2019-05-03T21:02:53.453Z,6.80
2019-05-03T21:05:29.676Z,5.67
2019-05-03T21:07:50.330Z,6.42
2019-05-03T21:10:18.726Z,6.50
2019-05-03T21:12:47.123Z,6.12
2019-05-03T21:15:31.979Z,5.55
2019-05-03T21:18:07.526Z,8.05
2019-05-03T21:20:37.552Z,6.58
2019-05-03T21:23:25.042Z,5.60
2019-05-03T21:26:13.343Z,7.83
2019-05-03T21:28:41.790Z,6.03
2019-05-03T21:31:10.212Z,5.95
2019-05-03T21:33:38.614Z,7.75
2019-05-03T21:36:07.020Z,6.92
2019-05-03T21:38:35.700Z,6.10
2019-05-03T21:41:05.289Z,6.67
2019-05-03T21:43:34.793Z,8.38
2019-05-03T21:46:05.618Z,7.12
2019-05-03T21:48:51.956Z,5.67
2019-05-03T21:51:20.359Z,7.30
2019-05-03T21:53:48.757Z,5.42
2019-05-03T21:56:17.169Z,6.72
2019-05-03T21:58:45.940Z,6.80
2019-05-03T22:01:15.497Z,5.53
2019-05-03T22:03:44.781Z,6.08
2019-05-03T22:06:15.425Z,6.08
2019-05-03T22:08:45.341Z,6.75
2019-05-03T22:11:14.835Z,5.50
2019-05-03T22:13:45.435Z,5.67
2019-05-03T22:16:18.584Z,7.35
2019-05-03T22:18:46.664Z,4.83
2019-05-03T22:21:28.421Z,5.25
2019-05-03T22:24:01.485Z,9.28
2019-05-03T22:26:47.959Z,6.83
2019-05-03T22:29:17.241Z,7.65
2019-05-03T22:31:45.858Z,6.67
2019-05-03T22:34:15.091Z,7.85
2019-05-03T22:36:44.428Z,7.47
2019-05-03T22:39:13.069Z,7.90
2019-05-03T22:41:41.510Z,4.92
2019-05-03T22:44:09.606Z,5.55
2019-05-03T22:46:37.990Z,8.15
2019-05-03T22:49:06.406Z,5.55
2019-05-03T22:51:34.637Z,4.75
2019-05-03T22:54:04.732Z,6.42
2019-05-03T22:56:33.090Z,6.70
2019-05-03T22:59:01.493Z,7.15
2019-05-03T23:01:29.565Z,6.92
2019-05-03T23:03:57.960Z,7.15
2019-05-03T23:06:26.368Z,7.92
2019-05-03T23:08:56.197Z,7.15
2019-05-03T23:11:24.713Z,6.22
2019-05-03T23:14:01.756Z,4.87
2019-05-03T23:16:31.270Z,6.78
2019-05-03T23:19:00.111Z,6.25
2019-05-03T23:21:30.222Z,8.15
2019-05-03T23:23:58.616Z,5.75
2019-05-03T23:26:26.688Z,6.47
2019-05-03T23:28:55.216Z,6.83
2019-05-03T23:31:25.199Z,7.17
2019-05-03T23:33:54.505Z,6.65
2019-05-03T23:36:32.704Z,5.75
2019-05-03T23:38:54.560Z,6.22
2019-05-03T23:41:24.545Z,6.17
2019-05-03T23:43:53.153Z,6.35
2019-05-03T23:46:25.190Z,5.87
2019-05-03T23:48:53.312Z,8.45
2019-05-03T23:51:39.581Z,6.70
2019-05-03T23:54:07.982Z,5.75
2019-05-03T23:56:36.464Z,6.50
2019-05-03T23:59:05.521Z,6.92
